Time;durP1;ratioP1;P1;durP2;ratioP2;P2;SDS_P1;SDS_P2;PMS_P1;PMS_P2;Temp;Humidity;BMP_temperature;BMP_pressure;BME280_temperature;BME280_humidity;BME280_pressure;Samples;Min_cycle;Max_cycle;Signal;HPM_P1;HPM_P2
2023/07/27 00:00:50;;;;;;;9.55;6.40;;;;;;;17.71;76.55;100874.84;5112210;28;20023;-63
2023/07/27 00:03:16;;;;;;;7.82;5.93;;;;;;;17.64;76.96;100876.41;5093545;28;20065;-63
2023/07/27 00:05:41;;;;;;;8.80;6.20;;;;;;;17.63;76.06;100872.03;5092526;28;20493;-63
2023/07/27 00:08:06;;;;;;;7.43;6.30;;;;;;;17.59;77.28;100855.31;5092827;28;20024;-63
2023/07/27 00:10:32;;;;;;;8.60;6.25;;;;;;;17.59;80.63;100868.78;5114749;28;20027;-63
2023/07/27 00:12:57;;;;;;;7.55;6.45;;;;;;;17.61;77.70;100855.16;5116517;28;20462;-63
2023/07/27 00:15:23;;;;;;;10.55;6.88;;;;;;;17.62;77.15;100859.56;5115846;28;20031;-63
2023/07/27 00:17:48;;;;;;;9.02;6.72;;;;;;;17.49;81.61;100860.69;5097999;28;20513;-63
2023/07/27 00:20:13;;;;;;;7.40;6.25;;;;;;;17.45;78.23;100859.28;5116320;28;20020;-63
2023/07/27 00:22:39;;;;;;;8.30;6.38;;;;;;;17.52;78.19;100859.56;5116106;28;20015;-63
2023/07/27 00:25:05;;;;;;;7.07;6.38;;;;;;;17.51;78.26;100854.34;5096989;28;20027;-63
2023/07/27 00:27:30;;;;;;;7.50;6.00;;;;;;;17.36;81.52;100852.06;5116089;28;20064;-63
2023/07/27 00:29:55;;;;;;;6.97;6.10;;;;;;;17.40;80.73;100842.72;5097791;28;20020;-63
2023/07/27 00:32:21;;;;;;;6.75;5.65;;;;;;;17.42;82.22;100845.28;5116178;28;20081;-63
2023/07/27 00:34:47;;;;;;;7.72;5.75;;;;;;;17.49;83.89;100839.16;5097499;28;20051;-63
2023/07/27 00:37:15;;;;;;;7.45;6.10;;;;;;;17.44;83.71;100851.34;5080548;28;20020;-63
2023/07/27 00:39:40;;;;;;;8.02;6.50;;;;;;;17.47;85.18;100842.97;5115750;28;20027;-63
2023/07/27 00:42:06;;;;;;;9.02;7.00;;;;;;;17.43;84.82;100833.50;5116114;28;20094;-63
2023/07/27 00:44:31;;;;;;;9.15;6.80;;;;;;;17.22;87.09;100836.34;5097248;28;20035;-63
2023/07/27 00:46:57;;;;;;;8.98;6.38;;;;;;;17.35;86.67;100817.22;5115302;28;20054;-63
2023/07/27 00:49:22;;;;;;;9.27;6.88;;;;;;;17.28;87.55;100825.03;5097127;28;20026;-63
2023/07/27 00:51:50;;;;;;;7.38;6.53;;;;;;;17.28;86.59;100819.66;5115097;28;20028;-63
2023/07/27 00:54:16;;;;;;;9.20;6.47;;;;;;;17.08;84.54;100815.25;5114722;28;20631;-63
2023/07/27 00:56:42;;;;;;;9.50;7.38;;;;;;;17.17;87.29;100817.09;5115082;28;20080;-63
2023/07/27 00:59:08;;;;;;;7.40;6.70;;;;;;;16.98;86.80;100809.88;5115289;28;20040;-63
2023/07/27 01:01:34;;;;;;;7.90;6.72;;;;;;;17.16;86.82;100793.91;5097063;28;20052;-63
2023/07/27 01:03:59;;;;;;;9.52;7.45;;;;;;;17.01;88.43;100802.38;5115347;28;20051;-63
2023/07/27 01:06:25;;;;;;;9.82;7.20;;;;;;;16.92;85.78;100791.63;5114591;28;20558;-63
2023/07/27 01:08:52;;;;;;;8.40;7.28;;;;;;;17.04;86.54;100798.56;5114380;28;20050;-63
2023/07/27 01:11:23;;;;;;;13.25;7.80;;;;;;;16.88;89.21;100787.50;5115272;28;20475;-63
2023/07/27 01:14:09;;;;;;;10.20;7.28;;;;;;;17.03;88.62;100786.97;5115148;28;20110;-63
2023/07/27 01:17:01;;;;;;;8.80;7.03;;;;;;;17.10;87.61;100781.03;5114785;28;20024;-63
2023/07/27 01:19:56;;;;;;;10.00;7.55;;;;;;;17.03;88.41;100783.44;5094517;28;20051;-63
2023/07/27 01:22:32;;;;;;;9.55;7.82;;;;;;;16.89;87.99;100773.94;5093903;28;20082;-63
2023/07/27 01:25:34;;;;;;;12.13;8.48;;;;;;;17.00;89.57;100776.50;5094146;28;20440;-63
2023/07/27 01:28:21;;;;;;;8.82;7.90;;;;;;;16.95;88.86;100772.53;5084284;28;20470;-63
2023/07/27 01:30:54;;;;;;;8.63;7.72;;;;;;;16.75;88.55;100755.50;5114776;28;20024;-63
2023/07/27 01:33:41;;;;;;;10.45;8.13;;;;;;;16.91;87.86;100763.03;5114859;28;20023;-63
2023/07/27 01:36:10;;;;;;;10.27;8.02;;;;;;;16.77;88.52;100759.78;5095333;28;20352;-63
2023/07/27 01:38:41;;;;;;;10.05;8.25;;;;;;;16.74;88.74;100759.19;5112159;28;20042;-63
2023/07/27 01:41:08;;;;;;;10.63;8.00;;;;;;;16.69;89.06;100748.84;5109397;28;20490;-63
2023/07/27 01:43:35;;;;;;;10.30;8.65;;;;;;;16.56;88.96;100748.25;5114572;28;20111;-63
2023/07/27 01:46:01;;;;;;;13.48;7.80;;;;;;;16.53;90.10;100743.13;5114299;28;20047;-63
2023/07/27 01:48:28;;;;;;;9.93;8.57;;;;;;;16.57;90.57;100734.69;5113719;28;20019;-63
2023/07/27 01:50:55;;;;;;;11.23;9.60;;;;;;;16.62;93.84;100741.47;5112215;28;20104;-63
2023/07/27 01:53:22;;;;;;;11.15;8.68;;;;;;;16.63;91.84;100732.44;5094652;28;20085;-64
2023/07/27 01:55:51;;;;;;;12.10;8.77;;;;;;;16.46;92.24;100723.22;5113590;28;20024;-63
2023/07/27 01:58:17;;;;;;;10.82;8.45;;;;;;;16.60;91.67;100728.19;5112821;28;20058;-63
2023/07/27 02:00:45;;;;;;;10.02;8.75;;;;;;;16.51;91.24;100721.81;5093996;28;20059;-63
2023/07/27 02:03:11;;;;;;;11.57;8.23;;;;;;;16.53;92.12;100713.59;5113303;28;20394;-63
2023/07/27 02:05:37;;;;;;;11.23;9.13;;;;;;;16.49;93.03;100702.31;5113289;28;20220;-63
2023/07/27 02:08:03;;;;;;;9.80;8.68;;;;;;;16.25;92.44;100677.69;5113216;28;20027;-63
2023/07/27 02:10:30;;;;;;;14.65;9.38;;;;;;;16.50;93.18;100704.03;5112781;28;20032;-63
2023/07/27 02:13:20;;;;;;;9.60;8.57;;;;;;;16.52;92.73;100691.28;5113670;28;20031;-63
2023/07/27 02:16:01;;;;;;;10.38;8.73;;;;;;;16.47;92.58;100690.00;5113292;28;20482;-63
2023/07/27 02:18:29;;;;;;;10.88;9.18;;;;;;;16.31;93.68;100669.06;5113874;28;20397;-63
2023/07/27 02:20:58;;;;;;;10.47;9.00;;;;;;;16.37;94.31;100675.72;5112862;28;20023;-63
2023/07/27 02:23:26;;;;;;;10.70;9.13;;;;;;;16.41;95.24;100675.28;5111288;28;20091;-63
2023/07/27 02:25:52;;;;;;;11.63;9.45;;;;;;;16.30;94.89;100664.69;5112006;28;20089;-63
2023/07/27 02:28:25;;;;;;;11.85;9.48;;;;;;;16.25;95.57;100661.56;5113690;28;20505;-63
2023/07/27 02:30:50;;;;;;;10.77;9.68;;;;;;;16.26;94.80;100660.56;5112871;28;20498;-63
2023/07/27 02:33:16;;;;;;;11.15;9.20;;;;;;;16.32;94.56;100654.66;5110533;28;20057;-63
2023/07/27 02:35:41;;;;;;;11.45;9.48;;;;;;;16.24;95.33;100650.00;5110996;28;20027;-63
2023/07/27 02:38:07;;;;;;;13.80;9.40;;;;;;;16.26;95.36;100634.59;5112935;28;20398;-63
2023/07/27 02:40:32;;;;;;;11.57;9.85;;;;;;;16.16;96.14;100635.56;5112304;28;20076;-63
2023/07/27 02:42:57;;;;;;;10.13;8.80;;;;;;;16.05;96.67;100633.84;5112579;28;20493;-63
2023/07/27 02:45:23;;;;;;;12.07;9.57;;;;;;;16.08;96.05;100628.19;5092963;28;20027;-63
2023/07/27 02:47:48;;;;;;;13.40;10.00;;;;;;;16.04;97.53;100622.28;5112609;28;20020;-63
2023/07/27 02:50:13;;;;;;;12.13;9.88;;;;;;;16.17;97.49;100621.16;5110261;28;20453;-63
2023/07/27 02:52:43;;;;;;;14.77;9.73;;;;;;;15.98;96.35;100606.72;5113212;28;20032;-63
2023/07/27 02:55:08;;;;;;;11.98;10.57;;;;;;;16.17;99.03;100619.31;5093605;28;20028;-63
2023/07/27 02:57:33;;;;;;;12.25;8.95;;;;;;;16.00;97.48;100612.81;5093757;28;20607;-63
2023/07/27 03:00:02;;;;;;;12.43;8.93;;;;;;;16.19;97.58;100620.03;5110264;28;20026;-63
2023/07/27 03:02:27;;;;;;;10.98;8.88;;;;;;;16.22;98.32;100608.19;5094790;28;20039;-63
2023/07/27 03:04:53;;;;;;;10.43;9.30;;;;;;;16.17;98.27;100605.91;5111204;28;20032;-63
2023/07/27 03:07:21;;;;;;;12.55;9.32;;;;;;;16.08;98.76;100604.91;5110921;28;20085;-62
2023/07/27 03:09:51;;;;;;;11.07;9.57;;;;;;;16.17;100.00;100605.91;5107825;28;20118;-63
2023/07/27 03:12:16;;;;;;;;;;;;;;;16.31;96.96;100601.97;5108752;28;20027;-63
2023/07/27 03:14:41;;;;;;;12.70;9.10;;;;;;;16.03;98.18;100599.13;5111008;28;20006;-63
2023/07/27 03:17:08;;;;;;;10.50;9.27;;;;;;;15.98;100.00;100587.09;5111443;28;20475;-63
2023/07/27 03:19:34;;;;;;;10.48;9.48;;;;;;;15.89;100.00;100591.47;5112693;28;20038;-63
2023/07/27 03:22:00;;;;;;;11.48;9.27;;;;;;;15.93;100.00;100581.31;5112188;28;20019;-63
2023/07/27 03:24:25;;;;;;;12.88;9.27;;;;;;;15.89;100.00;100570.00;5110222;28;20023;-63
2023/07/27 03:26:50;;;;;;;10.65;8.90;;;;;;;15.82;100.00;100566.16;5093159;28;20054;-63
2023/07/27 03:29:16;;;;;;;13.30;9.60;;;;;;;15.82;100.00;100553.59;5093433;28;20019;-63
2023/07/27 03:31:41;;;;;;;12.65;9.90;;;;;;;15.87;100.00;100554.03;5112490;28;20016;-63
2023/07/27 03:34:07;;;;;;;11.30;9.07;;;;;;;15.76;100.00;100543.41;5094093;28;20504;-63
2023/07/27 03:36:32;;;;;;;11.65;9.50;;;;;;;15.79;100.00;100526.22;5112531;28;20023;-63
2023/07/27 03:38:58;;;;;;;10.38;9.15;;;;;;;15.82;100.00;100532.13;5110737;28;20020;-63
2023/07/27 03:41:25;;;;;;;11.73;9.32;;;;;;;15.77;100.00;100526.38;5094357;28;20466;-63
2023/07/27 03:43:51;;;;;;;11.15;8.45;;;;;;;15.88;100.00;100520.00;5093495;28;20482;-63
2023/07/27 03:46:18;;;;;;;10.98;9.77;;;;;;;15.83;100.00;100515.09;5110436;28;20118;-63
2023/07/27 03:48:47;;;;;;;10.30;9.30;;;;;;;15.74;100.00;100504.34;5090322;28;20022;-63
2023/07/27 03:51:12;;;;;;;11.27;8.73;;;;;;;15.69;100.00;100498.53;5111300;28;20383;-63
2023/07/27 03:53:38;;;;;;;11.80;8.48;;;;;;;15.69;100.00;100490.50;5110365;28;20031;-63
2023/07/27 03:56:04;;;;;;;9.40;7.70;;;;;;;15.58;100.00;100486.91;5110714;28;20115;-63
2023/07/27 03:58:30;;;;;;;8.77;7.97;;;;;;;15.57;100.00;100492.44;5111869;28;20027;-62
2023/07/27 04:00:55;;;;;;;10.07;7.80;;;;;;;15.63;100.00;100489.19;5091833;28;20024;-63
2023/07/27 04:03:21;;;;;;;8.82;7.72;;;;;;;15.58;100.00;100481.53;5109757;28;20031;-63
2023/07/27 04:05:46;;;;;;;10.85;7.60;;;;;;;15.52;100.00;100482.09;5110174;28;20229;-63
2023/07/27 04:08:12;;;;;;;10.52;7.65;;;;;;;15.49;100.00;100477.00;5109991;28;20048;-63
2023/07/27 04:10:39;;;;;;;9.95;7.55;;;;;;;15.43;100.00;100482.94;5109654;28;20550;-63
2023/07/27 04:13:04;;;;;;;9.77;7.05;;;;;;;15.45;100.00;100483.66;5111070;28;20104;-63
2023/07/27 04:15:30;;;;;;;7.63;6.82;;;;;;;15.41;100.00;100484.88;5109820;28;20110;-63
2023/07/27 04:17:55;;;;;;;7.50;6.75;;;;;;;15.41;100.00;100479.53;5109791;28;20051;-63
2023/07/27 04:20:21;;;;;;;7.38;6.68;;;;;;;15.38;100.00;100478.00;5093776;28;20091;-63
2023/07/27 04:22:48;;;;;;;7.40;6.68;;;;;;;15.35;100.00;100475.59;5111806;28;20023;-63
2023/07/27 04:25:14;;;;;;;10.23;6.25;;;;;;;15.34;100.00;100470.34;5111723;28;20028;-63
2023/07/27 04:27:39;;;;;;;6.82;5.85;;;;;;;15.33;100.00;100460.63;5111853;28;20401;-63
2023/07/27 04:30:05;;;;;;;5.90;5.40;;;;;;;15.31;100.00;100467.94;5111872;28;20027;-63
2023/07/27 04:32:31;;;;;;;6.97;5.93;;;;;;;15.27;100.00;100461.19;5111839;28;20053;-63
2023/07/27 04:34:56;;;;;;;8.90;6.03;;;;;;;15.19;100.00;100448.47;5112273;28;20225;-63
2023/07/27 04:37:22;;;;;;;6.68;6.00;;;;;;;15.21;100.00;100446.50;5111724;28;20022;-63
2023/07/27 04:39:47;;;;;;;6.22;5.72;;;;;;;15.23;100.00;100449.88;5111355;28;20101;-64
2023/07/27 04:42:13;;;;;;;7.15;6.45;;;;;;;15.26;100.00;100443.38;5111751;28;20398;-63
2023/07/27 04:44:40;;;;;;;6.93;6.32;;;;;;;15.21;100.00;100452.69;5111103;28;20080;-63
2023/07/27 04:47:06;;;;;;;6.30;5.70;;;;;;;15.20;100.00;100432.22;5111744;28;20031;-63
2023/07/27 04:49:31;;;;;;;6.88;6.22;;;;;;;15.25;100.00;100434.50;5109492;28;20354;-63
2023/07/27 04:51:56;;;;;;;6.78;5.75;;;;;;;15.28;100.00;100442.28;5110602;28;20047;-63
2023/07/27 04:54:22;;;;;;;6.10;5.50;;;;;;;15.16;100.00;100428.13;5109812;28;20042;-63
2023/07/27 04:56:48;;;;;;;7.15;6.55;;;;;;;15.24;100.00;100434.66;5110122;28;20482;-64
2023/07/27 04:59:13;;;;;;;6.25;5.65;;;;;;;15.25;100.00;100436.34;5112535;28;20027;-63
2023/07/27 05:01:38;;;;;;;7.20;5.57;;;;;;;15.35;100.00;100426.47;5114210;28;20025;-63
2023/07/27 05:04:06;;;;;;;8.23;6.57;;;;;;;15.25;100.00;100431.84;5113849;28;20039;-63
2023/07/27 05:06:32;;;;;;;6.75;6.15;;;;;;;15.28;100.00;100420.84;5112121;28;20031;-63
2023/07/27 05:08:57;;;;;;;6.40;5.90;;;;;;;15.27;100.00;100419.16;5112952;28;20101;-63
2023/07/27 05:11:22;;;;;;;8.57;6.20;;;;;;;15.32;100.00;100419.56;5113500;28;20107;-63
2023/07/27 05:13:51;;;;;;;9.20;6.25;;;;;;;15.30;100.00;100412.69;5113358;28;20023;-63
2023/07/27 05:16:16;;;;;;;6.63;6.00;;;;;;;15.32;100.00;100400.81;5114766;28;20023;-63
2023/07/27 05:18:41;;;;;;;7.30;5.88;;;;;;;15.33;100.00;100396.31;5113946;28;20023;-63
2023/07/27 05:21:07;;;;;;;6.38;5.78;;;;;;;15.38;100.00;100394.06;5095339;28;20032;-63
2023/07/27 05:23:32;;;;;;;8.38;6.25;;;;;;;15.35;100.00;100386.28;5113240;28;20023;-63
2023/07/27 05:25:57;;;;;;;6.50;5.90;;;;;;;15.36;100.00;100388.00;5113997;28;20061;-63
2023/07/27 05:28:23;;;;;;;5.85;5.35;;;;;;;15.38;100.00;100392.25;5095530;28;20475;-63
2023/07/27 05:30:48;;;;;;;6.13;5.63;;;;;;;15.41;100.00;100391.09;5113541;28;20446;-63
2023/07/27 05:33:14;;;;;;;5.93;5.35;;;;;;;15.43;100.00;100376.56;5114705;28;20031;-62
2023/07/27 05:35:39;;;;;;;5.53;5.13;;;;;;;15.38;100.00;100372.59;5111749;28;20122;-63
2023/07/27 05:38:05;;;;;;;5.07;4.68;;;;;;;15.45;100.00;100385.31;5095044;28;20023;-62
2023/07/27 05:40:30;;;;;;;6.05;5.45;;;;;;;15.47;100.00;100371.81;5095200;28;20084;-63
2023/07/27 05:42:55;;;;;;;5.40;4.95;;;;;;;15.52;100.00;100374.88;5093985;28;20055;-63
2023/07/27 05:45:23;;;;;;;5.43;5.00;;;;;;;15.51;100.00;100381.25;5112565;28;20060;-63
2023/07/27 05:47:48;;;;;;;5.60;5.10;;;;;;;15.50;100.00;100371.53;5113079;28;20023;-63
2023/07/27 05:50:15;;;;;;;5.32;4.93;;;;;;;15.52;100.00;100374.88;5113441;28;20434;-64
2023/07/27 05:52:40;;;;;;;4.93;4.53;;;;;;;15.54;100.00;100356.84;5113446;28;20470;-63
2023/07/27 05:55:08;;;;;;;5.25;4.75;;;;;;;15.60;100.00;100358.94;5095226;28;20026;-64
2023/07/27 05:57:33;;;;;;;4.65;4.25;;;;;;;15.61;100.00;100365.16;5110050;28;20475;-62
2023/07/27 05:59:58;;;;;;;5.97;4.93;;;;;;;15.63;100.00;100361.34;5092007;28;20026;-62
2023/07/27 06:02:24;;;;;;;5.28;4.88;;;;;;;15.64;100.00;100354.97;5096115;28;20466;-62
2023/07/27 06:04:49;;;;;;;5.15;4.65;;;;;;;15.66;100.00;100355.69;5095772;28;20030;-62
2023/07/27 06:07:15;;;;;;;5.40;4.90;;;;;;;15.63;100.00;100353.31;5113742;28;20030;-63
2023/07/27 06:09:40;;;;;;;4.60;4.30;;;;;;;15.71;100.00;100347.28;5112575;28;20027;-63
2023/07/27 06:12:11;;;;;;;4.30;4.00;;;;;;;15.74;100.00;100348.84;5112252;28;20077;-63
2023/07/27 06:14:40;;;;;;;4.82;4.25;;;;;;;15.78;100.00;100347.53;5112660;28;20032;-63
2023/07/27 06:17:08;;;;;;;4.93;4.38;;;;;;;15.77;100.00;100351.22;5113784;28;20098;-63
2023/07/27 06:19:34;;;;;;;4.73;4.43;;;;;;;15.88;100.00;100346.56;5111799;28;20076;-63
2023/07/27 06:21:59;;;;;;;5.35;4.10;;;;;;;15.84;100.00;100341.59;5095117;28;20024;-63
2023/07/27 06:24:25;;;;;;;3.97;3.67;;;;;;;15.91;100.00;100340.03;5112417;28;20015;-63
2023/07/27 06:26:50;;;;;;;4.25;3.95;;;;;;;15.88;100.00;100337.63;5112625;28;20052;-62
2023/07/27 06:29:16;;;;;;;4.35;4.00;;;;;;;15.96;100.00;100339.63;5112599;28;20011;-63
2023/07/27 06:31:41;;;;;;;4.40;4.00;;;;;;;15.93;100.00;100334.53;5112229;28;20094;-63
2023/07/27 06:34:06;;;;;;;4.28;3.97;;;;;;;15.91;100.00;100329.31;5113421;28;20039;-63
2023/07/27 06:36:32;;;;;;;4.40;4.07;;;;;;;16.02;100.00;100336.34;5108514;28;20419;-62
2023/07/27 06:38:59;;;;;;;4.40;4.07;;;;;;;15.94;100.00;100315.59;5112031;28;20028;-63
2023/07/27 06:41:25;;;;;;;4.40;4.00;;;;;;;16.07;100.00;100336.78;5112133;28;20093;-63
2023/07/27 06:43:54;;;;;;;3.92;3.63;;;;;;;16.06;100.00;100340.41;5113320;28;20466;-63
2023/07/27 06:46:20;;;;;;;4.40;4.00;;;;;;;16.04;100.00;100319.13;5095237;28;20397;-63
2023/07/27 06:48:46;;;;;;;4.10;3.80;;;;;;;16.03;100.00;100322.81;5112783;28;20084;-62
2023/07/27 06:51:14;;;;;;;3.92;3.70;;;;;;;16.10;100.00;100337.31;5113506;28;20088;-63
2023/07/27 06:53:40;;;;;;;4.03;3.72;;;;;;;16.14;100.00;100327.13;5094613;28;20020;-62
2023/07/27 06:56:06;;;;;;;3.75;3.55;;;;;;;16.24;100.00;100338.72;5113499;28;20031;-62
2023/07/27 06:58:31;;;;;;;4.55;4.15;;;;;;;16.16;100.00;100333.22;5094375;28;20016;-63
2023/07/27 07:00:57;;;;;;;4.25;3.95;;;;;;;16.16;100.00;100335.06;5092648;28;20074;-62
2023/07/27 07:03:22;;;;;;;4.65;4.32;;;;;;;16.17;100.00;100315.28;5092887;28;20028;-63
2023/07/27 07:05:48;;;;;;;4.50;4.00;;;;;;;16.18;100.00;100325.88;5108902;28;20034;-63
2023/07/27 07:08:13;;;;;;;4.78;4.47;;;;;;;16.19;100.00;100322.19;5112375;28;20016;-63
2023/07/27 07:10:39;;;;;;;4.78;4.38;;;;;;;16.26;100.00;100334.00;5092945;28;20185;-62
2023/07/27 07:13:04;;;;;;;4.18;3.83;;;;;;;16.29;100.00;100330.19;5106480;27;20024;-62
2023/07/27 07:15:30;;;;;;;4.70;4.30;;;;;;;16.22;100.00;100329.94;5111295;28;20020;-62
2023/07/27 07:17:55;;;;;;;4.60;4.30;;;;;;;16.27;100.00;100340.25;5093512;28;20035;-62
2023/07/27 07:20:23;;;;;;;5.72;4.25;;;;;;;16.31;100.00;100334.44;5110321;28;20042;-63
2023/07/27 07:22:49;;;;;;;4.53;4.18;;;;;;;16.32;100.00;100340.63;5109427;28;20023;-63
2023/07/27 07:25:15;;;;;;;5.10;4.50;;;;;;;16.32;100.00;100336.16;5111781;28;20098;-63
2023/07/27 07:27:42;;;;;;;4.63;4.32;;;;;;;16.39;100.00;100340.91;5111766;28;20406;-63
2023/07/27 07:30:08;;;;;;;4.85;4.45;;;;;;;16.30;100.00;100324.69;5108184;27;20027;-63
2023/07/27 07:32:36;;;;;;;5.30;4.90;;;;;;;16.46;100.00;100342.00;5109239;28;20036;-63
2023/07/27 07:35:04;;;;;;;4.25;3.95;;;;;;;16.50;100.00;100324.59;5087269;28;20106;-63
2023/07/27 07:37:29;;;;;;;4.35;4.05;;;;;;;16.58;100.00;100322.88;5091656;28;20044;-65
2023/07/27 07:39:55;;;;;;;4.60;4.22;;;;;;;16.71;100.00;100316.34;5091709;28;20015;-65
2023/07/27 07:42:20;;;;;;;4.00;3.70;;;;;;;16.70;100.00;100318.16;5111918;28;20027;-64
2023/07/27 07:44:48;;;;;;;3.78;3.47;;;;;;;16.78;100.00;100312.91;5111568;28;20123;-65
2023/07/27 07:47:14;;;;;;;4.00;3.70;;;;;;;16.80;100.00;100320.84;5110834;28;20035;-65
2023/07/27 07:49:41;;;;;;;3.95;3.40;;;;;;;16.86;100.00;100324.75;5086941;28;20147;-64
2023/07/27 07:52:07;;;;;;;3.88;3.58;;;;;;;16.83;100.00;100312.47;5087673;28;20501;-65
2023/07/27 07:54:32;;;;;;;3.60;3.30;;;;;;;16.85;100.00;100312.31;5093005;28;20024;-65
2023/07/27 07:56:58;;;;;;;3.60;3.30;;;;;;;16.83;100.00;100307.09;5087143;28;20027;-65
2023/07/27 07:59:24;;;;;;;3.50;3.30;;;;;;;16.88;100.00;100314.69;5108859;28;20037;-65
2023/07/27 08:01:49;;;;;;;3.90;3.60;;;;;;;16.89;100.00;100311.03;5111480;28;20051;-65
2023/07/27 08:04:15;;;;;;;3.80;3.60;;;;;;;16.82;100.00;100313.44;5092746;28;20386;-65
2023/07/27 08:06:41;;;;;;;3.67;3.47;;;;;;;16.78;100.00;100317.44;5091929;28;20128;-65
2023/07/27 08:09:07;;;;;;;3.30;3.00;;;;;;;16.82;100.00;100310.75;5092282;28;20084;-65
2023/07/27 08:11:33;;;;;;;4.28;3.97;;;;;;;16.87;100.00;100313.00;5111241;28;20039;-65
2023/07/27 08:14:02;;;;;;;3.53;3.33;;;;;;;16.84;100.00;100308.78;5111642;28;20031;-65
2023/07/27 08:16:31;;;;;;;;;;;;;;;16.96;100.00;100317.47;5110983;28;20062;-65
2023/07/27 08:18:56;;;;;;;4.95;3.22;;;;;;;16.92;100.00;100310.72;5110393;28;19915;-65
2023/07/27 08:21:22;;;;;;;3.80;3.50;;;;;;;16.90;100.00;100310.88;5107677;28;20028;-65
2023/07/27 08:23:51;;;;;;;3.47;3.28;;;;;;;16.92;100.00;100287.38;5108570;28;20046;-65
2023/07/27 08:26:17;;;;;;;3.17;2.90;;;;;;;17.12;100.00;100300.66;5105708;28;20078;-65
2023/07/27 08:28:43;;;;;;;3.25;3.05;;;;;;;17.09;100.00;100298.28;5106197;28;20497;-65
2023/07/27 08:31:08;;;;;;;2.58;2.47;;;;;;;17.03;100.00;100294.41;5109450;28;20028;-65
2023/07/27 08:33:36;;;;;;;3.28;3.03;;;;;;;17.08;100.00;100293.91;5092693;28;20549;-65
2023/07/27 08:36:01;;;;;;;3.13;2.88;;;;;;;17.12;100.00;100296.16;5109130;27;20020;-65
2023/07/27 08:38:27;;;;;;;3.22;2.92;;;;;;;17.14;100.00;100294.16;5114616;28;20063;-64
2023/07/27 08:40:59;;;;;;;3.08;2.88;;;;;;;17.24;100.00;100300.31;5096800;28;20050;-65
2023/07/27 08:43:26;;;;;;;3.40;3.10;;;;;;;17.21;100.00;100310.53;5114384;28;20110;-65
2023/07/27 08:45:52;;;;;;;4.35;3.10;;;;;;;17.21;100.00;100295.25;5115164;27;20027;-64
2023/07/27 08:48:18;;;;;;;3.53;3.22;;;;;;;17.21;100.00;100303.31;5096589;28;20016;-65
2023/07/27 08:50:47;;;;;;;2.83;2.70;;;;;;;17.12;100.00;100289.91;5115021;27;20031;-65
2023/07/27 08:53:14;;;;;;;3.40;3.20;;;;;;;17.15;100.00;100306.59;5096533;28;20061;-65
2023/07/27 08:55:42;;;;;;;3.25;3.05;;;;;;;17.16;100.00;100302.06;5113063;27;20027;-64
2023/07/27 08:58:09;;;;;;;3.13;2.92;;;;;;;17.22;100.00;100294.25;5092653;28;20031;-65
2023/07/27 09:00:35;;;;;;;3.17;2.97;;;;;;;17.27;100.00;100298.31;5096722;28;20035;-65
2023/07/27 09:03:01;;;;;;;2.90;2.70;;;;;;;17.26;100.00;100300.16;5115492;28;20030;-65
2023/07/27 09:05:56;;;;;;;2.97;2.67;;;;;;;17.34;100.00;100299.38;5114245;28;20031;-65
2023/07/27 09:08:21;;;;;;;2.72;2.58;;;;;;;17.19;100.00;100285.66;5083478;28;20031;-65
2023/07/27 09:10:47;;;;;;;2.67;2.47;;;;;;;17.35;100.00;100293.00;5114967;28;20038;-64
2023/07/27 09:13:12;;;;;;;3.13;2.92;;;;;;;17.37;100.00;100288.31;5096842;28;20027;-65
2023/07/27 09:15:42;;;;;;;3.15;2.70;;;;;;;17.42;100.00;100294.94;5096970;28;20024;-65
2023/07/27 09:18:09;;;;;;;2.65;2.45;;;;;;;17.47;100.00;100300.69;5114331;28;20490;-64
2023/07/27 09:20:34;;;;;;;2.67;2.47;;;;;;;17.43;100.00;100280.47;5114209;28;20106;-64
2023/07/27 09:23:00;;;;;;;3.35;3.05;;;;;;;17.47;100.00;100294.44;5095752;28;20122;-65
2023/07/27 09:25:25;;;;;;;3.28;3.05;;;;;;;17.48;100.00;100288.09;5114518;28;20024;-65
2023/07/27 09:27:55;;;;;;;3.20;2.95;;;;;;;17.54;100.00;100295.53;5114237;28;20046;-65
2023/07/27 09:30:23;;;;;;;2.70;2.50;;;;;;;17.53;100.00;100293.84;5114704;28;20023;-65
2023/07/27 09:32:50;;;;;;;3.58;3.13;;;;;;;17.58;100.00;100294.22;5114773;28;20019;-64
2023/07/27 09:35:17;;;;;;;3.20;2.88;;;;;;;17.62;100.00;100292.91;5096317;28;20035;-65
2023/07/27 09:37:48;;;;;;;3.10;2.90;;;;;;;17.68;100.00;100291.44;5114753;28;20024;-64
2023/07/27 09:40:17;;;;;;;3.22;2.92;;;;;;;17.68;100.00;100292.28;5096111;28;20363;-65
2023/07/27 09:42:44;;;;;;;3.40;3.20;;;;;;;17.72;100.00;100295.50;5096244;28;20032;-64
2023/07/27 09:45:10;;;;;;;3.28;3.00;;;;;;;17.68;100.00;100283.38;5114610;28;20265;-64
2023/07/27 09:47:35;;;;;;;2.83;2.63;;;;;;;17.69;100.00;100293.97;5095574;28;20456;-64
2023/07/27 09:50:02;;;;;;;3.03;2.83;;;;;;;17.72;100.00;100292.81;5114161;28;20026;-65
2023/07/27 09:52:29;;;;;;;3.70;2.55;;;;;;;17.75;100.00;100289.81;5114589;28;20032;-65
2023/07/27 09:54:58;;;;;;;2.83;2.60;;;;;;;17.71;100.00;100291.97;5113929;28;20015;-65
2023/07/27 09:57:25;;;;;;;2.85;2.65;;;;;;;17.70;100.00;100286.75;5114151;28;20027;-65
2023/07/27 09:59:51;;;;;;;3.60;2.80;;;;;;;17.75;100.00;100297.03;5095972;28;20027;-65
2023/07/27 10:02:17;;;;;;;3.13;2.92;;;;;;;17.74;100.00;100303.44;5096069;28;20023;-65
2023/07/27 10:04:46;;;;;;;2.90;2.80;;;;;;;17.74;100.00;100295.38;5096001;28;20046;-65
2023/07/27 10:07:14;;;;;;;3.03;2.83;;;;;;;17.62;100.00;100294.78;5113924;28;20020;-65
2023/07/27 10:09:42;;;;;;;2.83;2.63;;;;;;;17.68;100.00;100296.84;5113117;28;20039;-65
2023/07/27 10:12:07;;;;;;;3.15;2.95;;;;;;;17.69;100.00;100304.72;5113497;28;20453;-65
2023/07/27 10:14:33;;;;;;;3.08;2.78;;;;;;;17.73;100.00;100299.03;5113435;28;20035;-65
2023/07/27 10:17:04;;;;;;;2.42;2.22;;;;;;;17.73;100.00;100299.03;5112589;28;20023;-65
2023/07/27 10:19:44;;;;;;;2.60;2.50;;;;;;;17.74;100.00;100285.44;5113413;28;20114;-65
2023/07/27 10:22:18;;;;;;;2.53;2.42;;;;;;;17.82;100.00;100304.34;5113817;28;20094;-65
2023/07/27 10:24:52;;;;;;;2.78;2.45;;;;;;;17.83;100.00;100297.13;5113499;28;20076;-65
2023/07/27 10:27:23;;;;;;;2.70;2.50;;;;;;;17.82;100.00;100292.75;5095151;28;20039;-65
2023/07/27 10:29:54;;;;;;;2.78;2.55;;;;;;;17.83;100.00;100300.66;5113550;28;20054;-65
2023/07/27 10:32:22;;;;;;;3.08;2.40;;;;;;;17.85;100.00;100303.19;5113793;28;20514;-65
2023/07/27 10:34:51;;;;;;;2.53;2.42;;;;;;;17.78;100.00;100302.13;5113671;28;20107;-65
2023/07/27 10:37:17;;;;;;;2.58;2.15;;;;;;;17.78;100.00;100302.97;5113586;28;20143;-65
2023/07/27 10:39:47;;;;;;;2.90;2.70;;;;;;;17.84;100.00;100302.34;5094958;28;20052;-65
2023/07/27 10:42:18;;;;;;;4.18;2.83;;;;;;;17.87;100.00;100299.34;5113666;28;20020;-65
2023/07/27 10:44:57;;;;;;;2.88;2.50;;;;;;;17.88;100.00;100301.03;5113609;28;20055;-65
2023/07/27 10:47:30;;;;;;;2.53;2.33;;;;;;;17.98;100.00;100313.56;5113162;28;20027;-65
2023/07/27 10:49:57;;;;;;;2.20;2.08;;;;;;;17.95;100.00;100297.72;5092966;28;20031;-65
2023/07/27 10:52:30;;;;;;;2.90;2.30;;;;;;;18.01;100.00;100302.47;5093933;28;20028;-65
2023/07/27 10:54:58;;;;;;;2.25;2.15;;;;;;;17.97;100.00;100295.69;5093604;28;20027;-65
2023/07/27 10:57:25;;;;;;;2.35;2.25;;;;;;;17.96;100.00;100302.09;5112959;28;20027;-64
2023/07/27 10:59:51;;;;;;;2.60;2.40;;;;;;;17.96;100.00;100294.03;5113057;28;20092;-65
2023/07/27 11:02:18;;;;;;;2.67;2.47;;;;;;;17.95;100.00;100297.72;5113020;28;20020;-64
2023/07/27 11:04:44;;;;;;;2.63;2.42;;;;;;;17.94;100.00;100299.53;5113108;28;20427;-66
2023/07/27 11:07:14;;;;;;;2.85;2.42;;;;;;;17.97;100.00;100296.56;5094215;28;20039;-65
2023/07/27 11:09:45;;;;;;;2.40;2.20;;;;;;;18.00;100.00;100301.63;5112565;28;20023;-66
2023/07/27 11:12:10;;;;;;;2.80;2.58;;;;;;;17.94;100.00;100299.53;5077754;28;20474;-66
2023/07/27 11:14:38;;;;;;;2.20;2.10;;;;;;;17.89;100.00;100296.50;5112650;28;20107;-66
2023/07/27 11:17:04;;;;;;;2.10;2.00;;;;;;;17.99;100.00;100299.91;5112306;28;20048;-66